Aérodrome :







RETROUVEZ-NOUS SUR...

 
LOGIN :

S'inscrire | Disclaimer

   EN    FR    IT 

 









Légende :    VFR   VFR Marginal   IFR   IFR Intensif   IFR Très Intensif
Visi : 
Plafond : 
>= 8 km
>= 3000ft
5 à 8 km
1000 à 3000 ft
1500m à 5 km
500 à 1000 ft
800 à 1500m
200 à 500 ft
< 800m
< 200 ft
Symboles :   Orages  Brouillard  Fortes neiges  Fortes précipitations  Vent > 20 kt






- Altitude de l'aérodrome : 59 ft
- Code IATA : SDQ


MDSD - Las Americas Int.

DERNIER METAR :
  • 142000Z 13008KT 9999 FEW018CB SCT020 SCT080 29/23 Q1012 CBN/S

METARs EXPIRÉS :
  • 141900Z 12008KT 9999 FEW018CB SCT020 29/24 Q1012 CB/NE/E/W
  • 141800Z 12006KT 9999 FEW018CB SCT020 29/24 Q1013 CB/NE/E/W

TAF TAF MDSD
Valide du 14 à 18h jusqu'au 15 à 18h UTC


141600Z 1418/1518 14008KT 9999 FEW018CB SCT020 SCT080
PROB40
TEMPO 1418/1500 6000 RA FEW016CB BKN018 BKN070
BECMG 1421/1423 06006KT
TEMPO 1500/1506 5000 RA FEW014CB BKN016 BKN070



MET'MAP, la Météo Aéronautique d'un coup d'oeil ! - Copyright ORBIFLY Décembre 2007 - Disclaimer

ORBIFLY MET'MAP TEAM :

Programmation & Développement : Alexandra Zaïnal
Sur une idée originale de : Baudouin d'Aumeries
Assistance à la programmation : Marc-Olivier Méhu
Soutien technique & logistique : Manuel Goepfert

Contact : metmap@orbifly.com




SOURCES & CREDITS :

   NOAA